sensor_id;sensor_type;location;lat;lon;timestamp;temperature;humidity
27226;DHT22;14732;51.074;3.788;2024-03-29T00:01:23;11.00;99.90
27226;DHT22;14732;51.074;3.788;2024-03-29T00:03:49;10.90;99.90
27226;DHT22;14732;51.074;3.788;2024-03-29T00:06:15;10.90;99.90
27226;DHT22;14732;51.074;3.788;2024-03-29T00:08:40;11.00;99.90
27226;DHT22;14732;51.074;3.788;2024-03-29T00:11:06;11.00;99.90
27226;DHT22;14732;51.074;3.788;2024-03-29T00:13:32;11.00;99.90
27226;DHT22;14732;51.074;3.788;2024-03-29T00:15:57;11.00;99.90
27226;DHT22;14732;51.074;3.788;2024-03-29T00:18:23;11.10;99.90
27226;DHT22;14732;51.074;3.788;2024-03-29T00:20:49;11.00;99.90
27226;DHT22;14732;51.074;3.788;2024-03-29T00:23:14;11.00;99.90
27226;DHT22;14732;51.074;3.788;2024-03-29T00:25:40;11.10;99.90
27226;DHT22;14732;51.074;3.788;2024-03-29T00:28:06;11.20;99.90
27226;DHT22;14732;51.074;3.788;2024-03-29T00:30:32;11.20;99.90
27226;DHT22;14732;51.074;3.788;2024-03-29T00:32:57;11.20;99.90
27226;DHT22;14732;51.074;3.788;2024-03-29T00:35:23;11.10;99.90
27226;DHT22;14732;51.074;3.788;2024-03-29T00:37:49;11.10;99.90
27226;DHT22;14732;51.074;3.788;2024-03-29T00:40:16;11.00;99.90
27226;DHT22;14732;51.074;3.788;2024-03-29T00:42:42;11.00;99.90
27226;DHT22;14732;51.074;3.788;2024-03-29T00:45:08;11.00;99.90
27226;DHT22;14732;51.074;3.788;2024-03-29T00:47:33;11.10;99.90
27226;DHT22;14732;51.074;3.788;2024-03-29T00:50:00;11.20;99.90
27226;DHT22;14732;51.074;3.788;2024-03-29T00:52:25;11.30;99.90
27226;DHT22;14732;51.074;3.788;2024-03-29T00:54:51;11.30;99.90
27226;DHT22;14732;51.074;3.788;2024-03-29T00:57:17;11.30;99.90
27226;DHT22;14732;51.074;3.788;2024-03-29T00:59:43;11.20;99.90
27226;DHT22;14732;51.074;3.788;2024-03-29T01:02:09;11.30;99.90
27226;DHT22;14732;51.074;3.788;2024-03-29T01:04:35;11.30;99.90
27226;DHT22;14732;51.074;3.788;2024-03-29T01:07:01;11.30;99.90
27226;DHT22;14732;51.074;3.788;2024-03-29T01:09:27;11.30;99.90
27226;DHT22;14732;51.074;3.788;2024-03-29T01:11:52;11.30;99.90
27226;DHT22;14732;51.074;3.788;2024-03-29T01:14:19;11.30;99.90
27226;DHT22;14732;51.074;3.788;2024-03-29T01:16:45;11.30;99.90
27226;DHT22;14732;51.074;3.788;2024-03-29T01:19:10;11.30;99.90
27226;DHT22;14732;51.074;3.788;2024-03-29T01:21:36;11.40;99.90
27226;DHT22;14732;51.074;3.788;2024-03-29T01:24:03;11.40;99.90
27226;DHT22;14732;51.074;3.788;2024-03-29T01:26:30;11.40;99.90
27226;DHT22;14732;51.074;3.788;2024-03-29T01:28:55;11.40;99.90
27226;DHT22;14732;51.074;3.788;2024-03-29T01:31:25;11.50;99.90
27226;DHT22;14732;51.074;3.788;2024-03-29T01:33:51;11.60;99.90
27226;DHT22;14732;51.074;3.788;2024-03-29T01:36:16;11.60;99.90
27226;DHT22;14732;51.074;3.788;2024-03-29T01:38:42;11.50;99.90
27226;DHT22;14732;51.074;3.788;2024-03-29T01:41:11;11.40;99.90
27226;DHT22;14732;51.074;3.788;2024-03-29T01:43:37;11.40;99.90
27226;DHT22;14732;51.074;3.788;2024-03-29T01:46:04;11.30;99.90
27226;DHT22;14732;51.074;3.788;2024-03-29T01:48:33;11.30;99.90
27226;DHT22;14732;51.074;3.788;2024-03-29T01:50:59;11.30;99.90
27226;DHT22;14732;51.074;3.788;2024-03-29T01:53:26;11.30;99.90
27226;DHT22;14732;51.074;3.788;2024-03-29T01:55:52;11.30;99.90
27226;DHT22;14732;51.074;3.788;2024-03-29T01:58:20;11.40;99.90
27226;DHT22;14732;51.074;3.788;2024-03-29T02:00:52;11.30;99.90
27226;DHT22;14732;51.074;3.788;2024-03-29T02:03:21;11.30;99.90
27226;DHT22;14732;51.074;3.788;2024-03-29T02:05:48;11.40;99.90
27226;DHT22;14732;51.074;3.788;2024-03-29T02:08:14;11.30;99.90
27226;DHT22;14732;51.074;3.788;2024-03-29T02:10:41;11.20;99.90
27226;DHT22;14732;51.074;3.788;2024-03-29T02:13:07;11.10;99.90
27226;DHT22;14732;51.074;3.788;2024-03-29T02:15:32;11.20;99.90
27226;DHT22;14732;51.074;3.788;2024-03-29T02:17:58;11.20;99.90
27226;DHT22;14732;51.074;3.788;2024-03-29T02:20:24;11.10;99.90
27226;DHT22;14732;51.074;3.788;2024-03-29T02:23:08;11.10;99.90
27226;DHT22;14732;51.074;3.788;2024-03-29T02:25:35;11.20;99.90
27226;DHT22;14732;51.074;3.788;2024-03-29T02:28:02;11.20;99.90
27226;DHT22;14732;51.074;3.788;2024-03-29T02:30:29;11.30;99.90
27226;DHT22;14732;51.074;3.788;2024-03-29T02:32:59;11.20;99.90
27226;DHT22;14732;51.074;3.788;2024-03-29T02:35:25;11.20;99.90
27226;DHT22;14732;51.074;3.788;2024-03-29T02:37:51;11.30;99.90
27226;DHT22;14732;51.074;3.788;2024-03-29T02:40:18;11.30;99.90
27226;DHT22;14732;51.074;3.788;2024-03-29T02:42:44;11.30;99.90
27226;DHT22;14732;51.074;3.788;2024-03-29T02:45:09;11.20;99.90
27226;DHT22;14732;51.074;3.788;2024-03-29T02:47:35;11.20;99.90
27226;DHT22;14732;51.074;3.788;2024-03-29T02:50:01;11.20;99.90
27226;DHT22;14732;51.074;3.788;2024-03-29T02:52:27;11.20;99.90
27226;DHT22;14732;51.074;3.788;2024-03-29T02:54:54;11.10;99.90
27226;DHT22;14732;51.074;3.788;2024-03-29T02:57:20;11.10;99.90
27226;DHT22;14732;51.074;3.788;2024-03-29T02:59:45;11.00;99.90
27226;DHT22;14732;51.074;3.788;2024-03-29T03:02:11;11.00;99.90
27226;DHT22;14732;51.074;3.788;2024-03-29T03:04:36;10.90;99.90
27226;DHT22;14732;51.074;3.788;2024-03-29T03:07:02;11.00;99.90
27226;DHT22;14732;51.074;3.788;2024-03-29T03:09:46;10.80;99.90
27226;DHT22;14732;51.074;3.788;2024-03-29T03:12:30;10.80;99.90
27226;DHT22;14732;51.074;3.788;2024-03-29T03:15:00;10.80;99.90
27226;DHT22;14732;51.074;3.788;2024-03-29T03:17:29;10.80;99.90
27226;DHT22;14732;51.074;3.788;2024-03-29T03:19:55;10.80;99.90
27226;DHT22;14732;51.074;3.788;2024-03-29T03:22:20;10.70;99.90
27226;DHT22;14732;51.074;3.788;2024-03-29T03:24:46;10.50;99.90
27226;DHT22;14732;51.074;3.788;2024-03-29T03:27:12;10.50;99.90
27226;DHT22;14732;51.074;3.788;2024-03-29T03:29:39;10.50;99.90
27226;DHT22;14732;51.074;3.788;2024-03-29T03:32:05;10.40;99.90
27226;DHT22;14732;51.074;3.788;2024-03-29T03:34:32;10.20;99.90
27226;DHT22;14732;51.074;3.788;2024-03-29T03:36:57;10.10;99.90
27226;DHT22;14732;51.074;3.788;2024-03-29T03:39:23;10.10;99.90
27226;DHT22;14732;51.074;3.788;2024-03-29T03:41:49;10.10;99.90
27226;DHT22;14732;51.074;3.788;2024-03-29T03:44:15;10.00;99.90
27226;DHT22;14732;51.074;3.788;2024-03-29T03:46:41;10.00;99.90
27226;DHT22;14732;51.074;3.788;2024-03-29T03:49:07;10.00;99.90
27226;DHT22;14732;51.074;3.788;2024-03-29T03:51:33;10.00;99.90
27226;DHT22;14732;51.074;3.788;2024-03-29T03:53:58;10.00;99.90
27226;DHT22;14732;51.074;3.788;2024-03-29T03:56:24;10.00;99.90
27226;DHT22;14732;51.074;3.788;2024-03-29T03:58:50;9.90;99.90
27226;DHT22;14732;51.074;3.788;2024-03-29T04:01:15;10.00;99.90
27226;DHT22;14732;51.074;3.788;2024-03-29T04:03:41;10.00;99.90
27226;DHT22;14732;51.074;3.788;2024-03-29T04:06:06;10.10;99.90
27226;DHT22;14732;51.074;3.788;2024-03-29T04:08:32;10.10;99.90
27226;DHT22;14732;51.074;3.788;2024-03-29T04:11:04;10.20;99.90
27226;DHT22;14732;51.074;3.788;2024-03-29T04:13:30;10.00;99.90
27226;DHT22;14732;51.074;3.788;2024-03-29T04:16:06;9.90;99.90
27226;DHT22;14732;51.074;3.788;2024-03-29T04:18:32;10.00;99.90
27226;DHT22;14732;51.074;3.788;2024-03-29T04:21:02;10.00;99.90
27226;DHT22;14732;51.074;3.788;2024-03-29T04:23:28;10.10;99.90
27226;DHT22;14732;51.074;3.788;2024-03-29T04:25:58;10.00;99.90
27226;DHT22;14732;51.074;3.788;2024-03-29T04:28:24;10.00;99.90
27226;DHT22;14732;51.074;3.788;2024-03-29T04:30:57;10.00;99.90
27226;DHT22;14732;51.074;3.788;2024-03-29T04:33:23;9.90;99.90
27226;DHT22;14732;51.074;3.788;2024-03-29T04:35:58;9.70;99.90
27226;DHT22;14732;51.074;3.788;2024-03-29T04:38:24;9.60;99.90
27226;DHT22;14732;51.074;3.788;2024-03-29T04:40:51;9.80;99.90
27226;DHT22;14732;51.074;3.788;2024-03-29T04:43:18;9.90;99.90
27226;DHT22;14732;51.074;3.788;2024-03-29T04:45:44;10.00;99.90
27226;DHT22;14732;51.074;3.788;2024-03-29T04:48:10;10.00;99.90
27226;DHT22;14732;51.074;3.788;2024-03-29T04:50:36;9.90;99.90
27226;DHT22;14732;51.074;3.788;2024-03-29T04:53:02;9.80;99.90
27226;DHT22;14732;51.074;3.788;2024-03-29T04:55:27;9.90;99.90
27226;DHT22;14732;51.074;3.788;2024-03-29T04:57:53;9.80;99.90
27226;DHT22;14732;51.074;3.788;2024-03-29T05:00:19;9.90;99.90
27226;DHT22;14732;51.074;3.788;2024-03-29T05:02:44;10.00;99.90
27226;DHT22;14732;51.074;3.788;2024-03-29T05:05:10;9.90;99.90
27226;DHT22;14732;51.074;3.788;2024-03-29T05:07:36;9.80;99.90
27226;DHT22;14732;51.074;3.788;2024-03-29T05:10:01;9.90;99.90
27226;DHT22;14732;51.074;3.788;2024-03-29T05:12:32;9.90;99.90
27226;DHT22;14732;51.074;3.788;2024-03-29T05:14:57;10.00;99.90
27226;DHT22;14732;51.074;3.788;2024-03-29T05:17:23;9.90;99.90
27226;DHT22;14732;51.074;3.788;2024-03-29T05:19:55;9.90;99.90
27226;DHT22;14732;51.074;3.788;2024-03-29T05:22:21;10.00;99.90
27226;DHT22;14732;51.074;3.788;2024-03-29T05:24:47;9.90;99.90
27226;DHT22;14732;51.074;3.788;2024-03-29T05:27:13;10.00;99.90
27226;DHT22;14732;51.074;3.788;2024-03-29T05:29:39;10.10;99.90
27226;DHT22;14732;51.074;3.788;2024-03-29T05:32:06;10.10;99.90
27226;DHT22;14732;51.074;3.788;2024-03-29T05:34:32;10.10;99.90
27226;DHT22;14732;51.074;3.788;2024-03-29T05:36:57;10.10;99.90
27226;DHT22;14732;51.074;3.788;2024-03-29T05:39:23;10.10;99.90
27226;DHT22;14732;51.074;3.788;2024-03-29T05:41:49;10.10;99.90
27226;DHT22;14732;51.074;3.788;2024-03-29T05:44:14;9.80;99.90
27226;DHT22;14732;51.074;3.788;2024-03-29T05:46:40;9.90;99.90
27226;DHT22;14732;51.074;3.788;2024-03-29T05:49:06;10.10;99.90
27226;DHT22;14732;51.074;3.788;2024-03-29T05:51:32;10.00;99.90
27226;DHT22;14732;51.074;3.788;2024-03-29T05:54:00;10.00;99.90
27226;DHT22;14732;51.074;3.788;2024-03-29T05:56:25;10.00;99.90
27226;DHT22;14732;51.074;3.788;2024-03-29T05:58:51;9.90;99.90
27226;DHT22;14732;51.074;3.788;2024-03-29T06:01:17;9.90;99.90
27226;DHT22;14732;51.074;3.788;2024-03-29T06:03:42;9.80;99.90
27226;DHT22;14732;51.074;3.788;2024-03-29T06:06:08;9.80;99.90
27226;DHT22;14732;51.074;3.788;2024-03-29T06:08:37;9.90;99.90
27226;DHT22;14732;51.074;3.788;2024-03-29T06:11:03;10.00;99.90
27226;DHT22;14732;51.074;3.788;2024-03-29T06:13:29;10.10;99.90
27226;DHT22;14732;51.074;3.788;2024-03-29T06:16:13;10.10;99.90
27226;DHT22;14732;51.074;3.788;2024-03-29T06:18:57;10.10;99.90
27226;DHT22;14732;51.074;3.788;2024-03-29T06:21:22;10.10;99.90
27226;DHT22;14732;51.074;3.788;2024-03-29T06:23:48;10.10;99.90
27226;DHT22;14732;51.074;3.788;2024-03-29T06:26:14;10.20;99.90
27226;DHT22;14732;51.074;3.788;2024-03-29T06:28:39;10.30;99.90
27226;DHT22;14732;51.074;3.788;2024-03-29T06:31:05;10.30;99.90
27226;DHT22;14732;51.074;3.788;2024-03-29T06:33:31;10.40;99.90
27226;DHT22;14732;51.074;3.788;2024-03-29T06:35:56;10.40;99.90
27226;DHT22;14732;51.074;3.788;2024-03-29T06:38:22;10.40;99.90
27226;DHT22;14732;51.074;3.788;2024-03-29T06:40:48;10.50;99.90
27226;DHT22;14732;51.074;3.788;2024-03-29T06:43:14;10.50;99.90
27226;DHT22;14732;51.074;3.788;2024-03-29T06:45:42;10.60;99.90
27226;DHT22;14732;51.074;3.788;2024-03-29T06:48:09;10.60;99.90
27226;DHT22;14732;51.074;3.788;2024-03-29T06:50:34;10.60;99.90
27226;DHT22;14732;51.074;3.788;2024-03-29T06:53:00;10.60;99.90
27226;DHT22;14732;51.074;3.788;2024-03-29T06:55:26;10.60;99.90
27226;DHT22;14732;51.074;3.788;2024-03-29T06:57:51;10.60;99.90
27226;DHT22;14732;51.074;3.788;2024-03-29T07:00:17;10.70;99.90
27226;DHT22;14732;51.074;3.788;2024-03-29T07:02:43;10.60;99.90
27226;DHT22;14732;51.074;3.788;2024-03-29T07:05:09;10.60;99.90
27226;DHT22;14732;51.074;3.788;2024-03-29T07:07:37;10.60;99.90
27226;DHT22;14732;51.074;3.788;2024-03-29T07:10:03;10.50;99.90
27226;DHT22;14732;51.074;3.788;2024-03-29T07:12:29;10.50;99.90
27226;DHT22;14732;51.074;3.788;2024-03-29T07:14:54;10.60;99.90
27226;DHT22;14732;51.074;3.788;2024-03-29T07:17:20;10.70;99.90
27226;DHT22;14732;51.074;3.788;2024-03-29T07:19:46;10.80;99.90
27226;DHT22;14732;51.074;3.788;2024-03-29T07:22:12;10.90;99.90
27226;DHT22;14732;51.074;3.788;2024-03-29T07:24:37;10.90;99.90
27226;DHT22;14732;51.074;3.788;2024-03-29T07:27:03;10.90;99.90
27226;DHT22;14732;51.074;3.788;2024-03-29T07:29:29;11.10;99.90
27226;DHT22;14732;51.074;3.788;2024-03-29T07:31:54;11.10;99.90
27226;DHT22;14732;51.074;3.788;2024-03-29T07:34:20;11.20;99.90
27226;DHT22;14732;51.074;3.788;2024-03-29T07:36:46;11.20;99.90
27226;DHT22;14732;51.074;3.788;2024-03-29T07:39:12;11.10;99.90
27226;DHT22;14732;51.074;3.788;2024-03-29T07:41:37;11.20;99.90
27226;DHT22;14732;51.074;3.788;2024-03-29T07:44:03;11.30;99.90
27226;DHT22;14732;51.074;3.788;2024-03-29T07:46:33;11.50;99.90
27226;DHT22;14732;51.074;3.788;2024-03-29T07:48:58;11.30;99.90
27226;DHT22;14732;51.074;3.788;2024-03-29T07:51:24;11.50;99.90
27226;DHT22;14732;51.074;3.788;2024-03-29T07:53:50;11.50;99.90
27226;DHT22;14732;51.074;3.788;2024-03-29T07:56:16;11.80;99.90
27226;DHT22;14732;51.074;3.788;2024-03-29T07:58:42;11.80;99.90
27226;DHT22;14732;51.074;3.788;2024-03-29T08:01:08;12.00;99.90
27226;DHT22;14732;51.074;3.788;2024-03-29T08:03:34;11.90;99.90
27226;DHT22;14732;51.074;3.788;2024-03-29T08:06:01;12.00;99.90
27226;DHT22;14732;51.074;3.788;2024-03-29T08:08:31;12.00;99.90
27226;DHT22;14732;51.074;3.788;2024-03-29T08:10:57;12.10;99.90
27226;DHT22;14732;51.074;3.788;2024-03-29T08:13:24;11.90;99.90
27226;DHT22;14732;51.074;3.788;2024-03-29T08:15:56;11.70;99.90
27226;DHT22;14732;51.074;3.788;2024-03-29T08:18:23;11.70;99.90
27226;DHT22;14732;51.074;3.788;2024-03-29T08:20:48;11.80;99.90
27226;DHT22;14732;51.074;3.788;2024-03-29T08:23:14;11.80;99.90
27226;DHT22;14732;51.074;3.788;2024-03-29T08:25:40;11.90;99.90
27226;DHT22;14732;51.074;3.788;2024-03-29T08:28:05;12.00;99.90
27226;DHT22;14732;51.074;3.788;2024-03-29T08:30:31;12.10;99.90
27226;DHT22;14732;51.074;3.788;2024-03-29T08:33:01;12.10;99.90
27226;DHT22;14732;51.074;3.788;2024-03-29T08:35:34;12.10;99.90
27226;DHT22;14732;51.074;3.788;2024-03-29T08:38:00;12.10;99.90
27226;DHT22;14732;51.074;3.788;2024-03-29T08:40:28;12.10;99.90
27226;DHT22;14732;51.074;3.788;2024-03-29T08:42:57;12.20;99.90
27226;DHT22;14732;51.074;3.788;2024-03-29T08:45:23;12.20;99.90
27226;DHT22;14732;51.074;3.788;2024-03-29T08:47:49;12.30;99.90
27226;DHT22;14732;51.074;3.788;2024-03-29T08:50:15;12.50;99.90
27226;DHT22;14732;51.074;3.788;2024-03-29T08:52:41;12.60;99.90
27226;DHT22;14732;51.074;3.788;2024-03-29T08:55:07;12.60;99.90
27226;DHT22;14732;51.074;3.788;2024-03-29T08:57:33;12.70;99.90
27226;DHT22;14732;51.074;3.788;2024-03-29T08:59:59;12.80;99.90
27226;DHT22;14732;51.074;3.788;2024-03-29T09:02:25;12.80;99.90
27226;DHT22;14732;51.074;3.788;2024-03-29T09:04:51;12.90;99.90
27226;DHT22;14732;51.074;3.788;2024-03-29T09:07:16;12.90;99.90
27226;DHT22;14732;51.074;3.788;2024-03-29T09:09:42;12.80;99.90
27226;DHT22;14732;51.074;3.788;2024-03-29T09:12:08;12.90;99.90
27226;DHT22;14732;51.074;3.788;2024-03-29T09:14:34;12.90;99.90
27226;DHT22;14732;51.074;3.788;2024-03-29T09:17:00;12.80;99.90
27226;DHT22;14732;51.074;3.788;2024-03-29T09:19:27;12.80;99.90
27226;DHT22;14732;51.074;3.788;2024-03-29T09:21:54;12.50;99.90
27226;DHT22;14732;51.074;3.788;2024-03-29T09:24:19;12.60;99.90
27226;DHT22;14732;51.074;3.788;2024-03-29T09:26:49;13.00;99.90
27226;DHT22;14732;51.074;3.788;2024-03-29T09:29:14;13.70;99.90
27226;DHT22;14732;51.074;3.788;2024-03-29T09:31:41;14.40;99.90
27226;DHT22;14732;51.074;3.788;2024-03-29T09:34:07;14.70;99.90
27226;DHT22;14732;51.074;3.788;2024-03-29T09:36:32;14.80;99.90
27226;DHT22;14732;51.074;3.788;2024-03-29T09:38:58;15.00;99.90
27226;DHT22;14732;51.074;3.788;2024-03-29T09:41:25;15.40;99.90
27226;DHT22;14732;51.074;3.788;2024-03-29T09:43:54;15.70;99.90
27226;DHT22;14732;51.074;3.788;2024-03-29T09:46:23;15.50;99.90
27226;DHT22;14732;51.074;3.788;2024-03-29T09:48:50;15.50;99.90
27226;DHT22;14732;51.074;3.788;2024-03-29T09:51:17;15.30;99.90
27226;DHT22;14732;51.074;3.788;2024-03-29T09:53:46;15.20;99.90
27226;DHT22;14732;51.074;3.788;2024-03-29T09:56:11;15.30;99.90
27226;DHT22;14732;51.074;3.788;2024-03-29T09:58:38;15.20;99.90
27226;DHT22;14732;51.074;3.788;2024-03-29T10:01:05;15.20;99.90
27226;DHT22;14732;51.074;3.788;2024-03-29T10:03:35;15.10;99.90
27226;DHT22;14732;51.074;3.788;2024-03-29T10:06:01;15.00;99.90
27226;DHT22;14732;51.074;3.788;2024-03-29T10:08:29;15.00;99.90
27226;DHT22;14732;51.074;3.788;2024-03-29T10:10:56;15.10;99.90
27226;DHT22;14732;51.074;3.788;2024-03-29T10:13:23;15.20;99.90
27226;DHT22;14732;51.074;3.788;2024-03-29T10:15:49;15.30;99.90
27226;DHT22;14732;51.074;3.788;2024-03-29T10:18:17;15.30;99.90
27226;DHT22;14732;51.074;3.788;2024-03-29T10:20:45;15.00;99.90
27226;DHT22;14732;51.074;3.788;2024-03-29T10:23:11;14.90;99.90
27226;DHT22;14732;51.074;3.788;2024-03-29T10:25:36;14.80;99.90
27226;DHT22;14732;51.074;3.788;2024-03-29T10:28:02;14.80;99.90
27226;DHT22;14732;51.074;3.788;2024-03-29T10:30:28;15.00;99.90
27226;DHT22;14732;51.074;3.788;2024-03-29T10:32:57;15.00;99.90
27226;DHT22;14732;51.074;3.788;2024-03-29T10:35:26;15.10;99.90
27226;DHT22;14732;51.074;3.788;2024-03-29T10:37:55;15.30;99.90
27226;DHT22;14732;51.074;3.788;2024-03-29T10:40:24;15.40;99.90
27226;DHT22;14732;51.074;3.788;2024-03-29T10:42:52;15.60;99.90
27226;DHT22;14732;51.074;3.788;2024-03-29T10:45:18;15.60;99.90
27226;DHT22;14732;51.074;3.788;2024-03-29T10:47:46;15.50;99.90
27226;DHT22;14732;51.074;3.788;2024-03-29T10:50:13;15.70;99.90
27226;DHT22;14732;51.074;3.788;2024-03-29T10:52:43;15.90;99.90
27226;DHT22;14732;51.074;3.788;2024-03-29T10:55:11;15.80;99.90
27226;DHT22;14732;51.074;3.788;2024-03-29T10:57:41;15.90;99.90
27226;DHT22;14732;51.074;3.788;2024-03-29T11:00:15;15.90;99.90
27226;DHT22;14732;51.074;3.788;2024-03-29T11:02:51;16.20;99.90
27226;DHT22;14732;51.074;3.788;2024-03-29T11:05:22;16.50;99.90
27226;DHT22;14732;51.074;3.788;2024-03-29T11:07:50;16.80;99.90
27226;DHT22;14732;51.074;3.788;2024-03-29T11:10:17;16.70;99.90
27226;DHT22;14732;51.074;3.788;2024-03-29T11:13:10;16.60;99.90
27226;DHT22;14732;51.074;3.788;2024-03-29T11:15:38;16.50;99.90
27226;DHT22;14732;51.074;3.788;2024-03-29T11:18:07;16.40;99.90
27226;DHT22;14732;51.074;3.788;2024-03-29T11:20:34;16.10;99.90
27226;DHT22;14732;51.074;3.788;2024-03-29T11:23:04;16.00;99.90
27226;DHT22;14732;51.074;3.788;2024-03-29T11:25:43;15.90;99.90
27226;DHT22;14732;51.074;3.788;2024-03-29T11:28:14;16.20;99.90
27226;DHT22;14732;51.074;3.788;2024-03-29T11:30:50;16.20;99.90
27226;DHT22;14732;51.074;3.788;2024-03-29T11:33:45;16.30;99.90
27226;DHT22;14732;51.074;3.788;2024-03-29T11:38:45;16.40;99.90
27226;DHT22;14732;51.074;3.788;2024-03-29T11:41:16;16.40;99.90
27226;DHT22;14732;51.074;3.788;2024-03-29T11:43:42;16.60;99.90
27226;DHT22;14732;51.074;3.788;2024-03-29T11:46:14;16.50;99.90
27226;DHT22;14732;51.074;3.788;2024-03-29T11:48:41;16.60;99.90
27226;DHT22;14732;51.074;3.788;2024-03-29T11:51:09;16.80;99.90
27226;DHT22;14732;51.074;3.788;2024-03-29T11:53:36;17.00;99.90
27226;DHT22;14732;51.074;3.788;2024-03-29T11:56:03;17.10;99.90
27226;DHT22;14732;51.074;3.788;2024-03-29T11:58:31;17.10;99.90
27226;DHT22;14732;51.074;3.788;2024-03-29T12:00:58;17.30;99.90
27226;DHT22;14732;51.074;3.788;2024-03-29T12:03:29;17.00;99.90
27226;DHT22;14732;51.074;3.788;2024-03-29T12:05:56;17.10;99.90
27226;DHT22;14732;51.074;3.788;2024-03-29T12:08:35;17.10;99.90
27226;DHT22;14732;51.074;3.788;2024-03-29T12:11:02;17.50;99.90
27226;DHT22;14732;51.074;3.788;2024-03-29T12:13:29;17.70;99.90
27226;DHT22;14732;51.074;3.788;2024-03-29T12:15:55;17.70;99.90
27226;DHT22;14732;51.074;3.788;2024-03-29T12:18:22;17.60;99.90
27226;DHT22;14732;51.074;3.788;2024-03-29T12:20:49;17.80;99.90
27226;DHT22;14732;51.074;3.788;2024-03-29T12:23:17;17.80;99.90
27226;DHT22;14732;51.074;3.788;2024-03-29T12:25:43;17.70;99.90
27226;DHT22;14732;51.074;3.788;2024-03-29T12:28:11;17.70;99.90
27226;DHT22;14732;51.074;3.788;2024-03-29T12:30:40;17.60;99.90
27226;DHT22;14732;51.074;3.788;2024-03-29T12:33:12;17.50;99.90
27226;DHT22;14732;51.074;3.788;2024-03-29T12:35:45;17.60;99.90
27226;DHT22;14732;51.074;3.788;2024-03-29T12:38:11;17.70;99.90
27226;DHT22;14732;51.074;3.788;2024-03-29T12:40:38;17.80;99.90
27226;DHT22;14732;51.074;3.788;2024-03-29T12:43:06;17.80;99.90
27226;DHT22;14732;51.074;3.788;2024-03-29T12:45:38;17.70;99.90
27226;DHT22;14732;51.074;3.788;2024-03-29T12:48:10;17.60;99.90
27226;DHT22;14732;51.074;3.788;2024-03-29T12:50:36;17.50;99.90
27226;DHT22;14732;51.074;3.788;2024-03-29T12:53:06;17.40;99.90
27226;DHT22;14732;51.074;3.788;2024-03-29T12:55:32;17.40;99.90
27226;DHT22;14732;51.074;3.788;2024-03-29T12:58:04;17.20;99.90
27226;DHT22;14732;51.074;3.788;2024-03-29T13:00:31;17.20;99.90
27226;DHT22;14732;51.074;3.788;2024-03-29T13:02:56;17.20;99.90
27226;DHT22;14732;51.074;3.788;2024-03-29T13:05:22;17.40;99.90
27226;DHT22;14732;51.074;3.788;2024-03-29T13:07:48;17.40;99.90
27226;DHT22;14732;51.074;3.788;2024-03-29T13:10:13;17.40;99.90
27226;DHT22;14732;51.074;3.788;2024-03-29T13:12:43;17.40;99.90
27226;DHT22;14732;51.074;3.788;2024-03-29T13:15:18;17.50;99.90
27226;DHT22;14732;51.074;3.788;2024-03-29T13:17:45;17.50;99.90
27226;DHT22;14732;51.074;3.788;2024-03-29T13:20:13;17.50;99.90
27226;DHT22;14732;51.074;3.788;2024-03-29T13:22:39;17.50;99.90
27226;DHT22;14732;51.074;3.788;2024-03-29T13:25:07;17.40;99.90
27226;DHT22;14732;51.074;3.788;2024-03-29T13:27:33;17.50;99.90
27226;DHT22;14732;51.074;3.788;2024-03-29T13:29:59;17.60;99.90
27226;DHT22;14732;51.074;3.788;2024-03-29T13:32:24;17.50;99.90
27226;DHT22;14732;51.074;3.788;2024-03-29T13:34:52;17.40;99.90
27226;DHT22;14732;51.074;3.788;2024-03-29T13:37:17;17.50;99.90
27226;DHT22;14732;51.074;3.788;2024-03-29T13:39:43;17.40;99.90
27226;DHT22;14732;51.074;3.788;2024-03-29T13:42:09;17.50;99.90
27226;DHT22;14732;51.074;3.788;2024-03-29T13:44:34;17.40;99.90
27226;DHT22;14732;51.074;3.788;2024-03-29T13:47:00;17.40;99.90
27226;DHT22;14732;51.074;3.788;2024-03-29T13:49:30;17.40;99.90
27226;DHT22;14732;51.074;3.788;2024-03-29T13:51:57;17.20;99.90
27226;DHT22;14732;51.074;3.788;2024-03-29T20:50:26;14.30;99.90
27226;DHT22;14732;51.074;3.788;2024-03-29T20:52:53;14.30;99.90
27226;DHT22;14732;51.074;3.788;2024-03-29T20:55:19;14.30;99.90
27226;DHT22;14732;51.074;3.788;2024-03-29T20:57:45;14.40;99.90
27226;DHT22;14732;51.074;3.788;2024-03-29T21:00:11;14.40;99.90
27226;DHT22;14732;51.074;3.788;2024-03-29T21:02:37;14.30;99.90
27226;DHT22;14732;51.074;3.788;2024-03-29T21:05:21;14.20;99.90
27226;DHT22;14732;51.074;3.788;2024-03-29T21:08:01;14.10;99.90
27226;DHT22;14732;51.074;3.788;2024-03-29T21:10:28;14.00;99.90
27226;DHT22;14732;51.074;3.788;2024-03-29T21:12:55;14.10;99.90
27226;DHT22;14732;51.074;3.788;2024-03-29T21:15:20;14.20;99.90
27226;DHT22;14732;51.074;3.788;2024-03-29T21:17:47;14.10;99.90
27226;DHT22;14732;51.074;3.788;2024-03-29T21:20:13;14.10;99.90
27226;DHT22;14732;51.074;3.788;2024-03-29T21:22:40;14.00;99.90
27226;DHT22;14732;51.074;3.788;2024-03-29T21:25:06;14.00;99.90
27226;DHT22;14732;51.074;3.788;2024-03-29T21:27:34;14.00;99.90
27226;DHT22;14732;51.074;3.788;2024-03-29T21:30:00;13.90;99.90
27226;DHT22;14732;51.074;3.788;2024-03-29T21:32:27;13.90;99.90
27226;DHT22;14732;51.074;3.788;2024-03-29T21:34:53;13.90;99.90
27226;DHT22;14732;51.074;3.788;2024-03-29T21:37:19;14.00;99.90
27226;DHT22;14732;51.074;3.788;2024-03-29T21:39:44;13.90;99.90
27226;DHT22;14732;51.074;3.788;2024-03-29T21:42:11;13.70;99.90
27226;DHT22;14732;51.074;3.788;2024-03-29T21:44:37;13.80;99.90
27226;DHT22;14732;51.074;3.788;2024-03-29T21:47:03;13.80;99.90
27226;DHT22;14732;51.074;3.788;2024-03-29T21:49:29;13.70;99.90
27226;DHT22;14732;51.074;3.788;2024-03-29T21:51:55;13.80;99.90
27226;DHT22;14732;51.074;3.788;2024-03-29T21:54:20;13.80;99.90
27226;DHT22;14732;51.074;3.788;2024-03-29T21:56:50;13.80;99.90
27226;DHT22;14732;51.074;3.788;2024-03-29T21:59:16;13.80;99.90
27226;DHT22;14732;51.074;3.788;2024-03-29T22:01:42;13.70;99.90
27226;DHT22;14732;51.074;3.788;2024-03-29T22:04:07;13.60;99.90
27226;DHT22;14732;51.074;3.788;2024-03-29T22:06:33;13.60;99.90
27226;DHT22;14732;51.074;3.788;2024-03-29T22:09:00;13.50;99.90
27226;DHT22;14732;51.074;3.788;2024-03-29T22:11:26;13.30;99.90
27226;DHT22;14732;51.074;3.788;2024-03-29T22:13:51;13.20;99.90
27226;DHT22;14732;51.074;3.788;2024-03-29T22:16:18;13.20;99.90
27226;DHT22;14732;51.074;3.788;2024-03-29T22:18:43;13.10;99.90
27226;DHT22;14732;51.074;3.788;2024-03-29T22:21:09;13.20;99.90
27226;DHT22;14732;51.074;3.788;2024-03-29T22:23:35;13.10;99.90
27226;DHT22;14732;51.074;3.788;2024-03-29T22:26:01;13.00;99.90
27226;DHT22;14732;51.074;3.788;2024-03-29T22:28:26;12.90;99.90
27226;DHT22;14732;51.074;3.788;2024-03-29T22:30:52;12.90;99.90